createdAt,value
2022-07-29T00:01:30.402Z,57.00
2022-07-29T00:06:34.835Z,60.28
2022-07-29T00:11:39.858Z,65.84
2022-07-29T00:16:44.431Z,59.48
2022-07-29T00:21:49.335Z,56.72
2022-07-29T00:26:54.499Z,60.09
2022-07-29T00:31:59.147Z,66.36
2022-07-29T00:37:04.244Z,62.03
2022-07-29T00:42:09.897Z,59.29
2022-07-29T00:47:14.785Z,58.05
2022-07-29T00:52:19.434Z,61.33
2022-07-29T00:57:27.003Z,67.01
2022-07-29T01:02:32.343Z,63.36
2022-07-29T01:07:38.798Z,60.41
2022-07-29T01:12:46.878Z,59.14
2022-07-29T01:18:18.856Z,58.81
2022-07-29T01:23:54.971Z,60.40
2022-07-29T01:29:56.046Z,67.64
2022-07-29T01:35:21.819Z,65.76
2022-07-29T01:40:41.022Z,62.23
2022-07-29T01:45:54.347Z,59.07
2022-07-29T01:51:06.474Z,58.90
2022-07-29T01:56:13.036Z,66.33
2022-07-29T02:01:19.628Z,63.40
2022-07-29T02:06:25.947Z,60.34
2022-07-29T02:11:35.050Z,57.67
2022-07-29T02:16:42.895Z,57.62
2022-07-29T02:21:49.040Z,63.34
2022-07-29T02:26:58.300Z,63.66
2022-07-29T02:32:04.403Z,61.69
2022-07-29T02:37:13.597Z,64.10
2022-07-29T02:42:24.558Z,62.59
2022-07-29T02:47:51.475Z,60.74
2022-07-29T02:53:14.194Z,60.27
2022-07-29T02:58:32.540Z,57.79
2022-07-29T03:03:40.717Z,59.05
2022-07-29T03:08:46.763Z,67.46
2022-07-29T03:13:54.932Z,62.80
2022-07-29T03:19:01.325Z,62.31
2022-07-29T03:24:12.549Z,61.38
2022-07-29T03:29:17.222Z,57.64
2022-07-29T03:34:25.385Z,58.80
2022-07-29T03:39:36.249Z,65.84
2022-07-29T03:44:46.248Z,67.74
2022-07-29T03:49:55.931Z,64.38
2022-07-29T03:55:00.837Z,65.34
2022-07-29T04:00:07.351Z,65.01
2022-07-29T04:05:16.665Z,63.53
2022-07-29T04:10:30.061Z,63.87
2022-07-29T04:15:37.787Z,62.84
2022-07-29T04:20:42.395Z,65.61
2022-07-29T04:25:50.102Z,62.21
2022-07-29T04:30:55.931Z,61.38
2022-07-29T04:36:00.317Z,59.77
2022-07-29T04:41:05.777Z,56.80
2022-07-29T04:46:10.660Z,60.44
2022-07-29T04:51:17.061Z,67.12
2022-07-29T04:56:21.666Z,62.68
2022-07-29T05:01:26.487Z,61.13
2022-07-29T05:06:31.605Z,60.19
2022-07-29T05:11:36.331Z,59.74
2022-07-29T05:16:44.792Z,65.31
2022-07-29T05:21:51.361Z,63.38
2022-07-29T05:26:59.744Z,58.47
2022-07-29T05:32:08.287Z,58.38
2022-07-29T05:37:15.332Z,63.85
2022-07-29T05:42:20.073Z,61.33
2022-07-29T05:47:26.912Z,57.05
2022-07-29T05:52:32.223Z,57.98
2022-07-29T05:57:36.674Z,61.74
2022-07-29T06:02:41.566Z,63.28
2022-07-29T06:07:50.108Z,57.31
2022-07-29T06:12:58.684Z,60.35
2022-07-29T06:18:03.658Z,63.71
2022-07-29T06:23:12.386Z,59.04
2022-07-29T06:28:17.426Z,59.96
2022-07-29T06:33:23.164Z,60.79
2022-07-29T06:38:31.516Z,61.35
2022-07-29T06:43:51.944Z,56.92
2022-07-29T06:48:58.423Z,57.60
2022-07-29T06:54:03.822Z,60.35
2022-07-29T06:59:12.997Z,60.79
2022-07-29T07:04:19.644Z,57.44
2022-07-29T07:09:40.587Z,57.90
2022-07-29T07:14:45.851Z,58.85
2022-07-29T07:19:51.038Z,59.64
2022-07-29T07:24:59.306Z,59.18
2022-07-29T07:30:10.514Z,58.46
2022-07-29T07:35:16.079Z,58.29
2022-07-29T07:40:22.312Z,57.42
2022-07-29T07:45:27.851Z,56.70
2022-07-29T07:50:32.400Z,55.88
2022-07-29T08:01:08.936Z,54.20
2022-07-29T08:06:17.035Z,53.35
2022-07-29T08:11:24.683Z,53.73
2022-07-29T08:16:30.846Z,52.74
2022-07-29T08:21:36.236Z,50.84
2022-07-29T08:26:41.289Z,49.71
2022-07-29T08:31:47.887Z,50.34
2022-07-29T08:36:52.943Z,50.53
2022-07-29T08:41:59.619Z,47.53
2022-07-29T08:47:05.382Z,47.72
2022-07-29T08:52:17.692Z,48.59
2022-07-29T08:57:29.010Z,49.25
2022-07-29T09:02:42.647Z,49.51
2022-07-29T09:07:49.764Z,48.82
2022-07-29T09:12:56.519Z,48.44
2022-07-29T09:18:02.289Z,48.02
2022-07-29T09:23:10.571Z,46.65
2022-07-29T09:28:22.059Z,46.41
2022-07-29T09:33:41.909Z,45.66
2022-07-29T09:39:04.859Z,44.75
2022-07-29T09:44:18.914Z,44.35
2022-07-29T09:49:23.903Z,43.80
2022-07-29T09:54:31.875Z,43.26
2022-07-29T09:59:37.062Z,43.27
2022-07-29T10:04:55.923Z,43.07
2022-07-29T10:10:01.995Z,42.10
2022-07-29T10:15:07.999Z,41.78
2022-07-29T10:20:16.492Z,41.96
2022-07-29T10:25:23.566Z,40.99
2022-07-29T10:30:31.472Z,40.95
2022-07-29T10:35:52.530Z,40.07
2022-07-29T10:41:43.731Z,40.04
2022-07-29T10:46:49.828Z,39.89
2022-07-29T10:52:11.955Z,38.83
2022-07-29T10:57:53.251Z,37.61
2022-07-29T11:02:55.730Z,37.90
2022-07-29T11:08:19.958Z,37.56
2022-07-29T11:13:44.768Z,36.49
2022-07-29T11:19:13.614Z,35.53
2022-07-29T11:24:37.748Z,36.98
2022-07-29T11:30:05.933Z,37.48
2022-07-29T11:35:37.088Z,37.34
2022-07-29T11:40:44.507Z,36.92
2022-07-29T11:45:52.997Z,36.50
2022-07-29T11:50:58.904Z,36.20
2022-07-29T11:56:04.928Z,36.77
2022-07-29T12:01:16.694Z,37.17
2022-07-29T12:06:24.839Z,37.19
2022-07-29T12:11:30.324Z,36.26
2022-07-29T12:16:39.344Z,35.22
2022-07-29T12:21:56.566Z,35.60
2022-07-29T12:27:02.599Z,35.73
2022-07-29T12:32:19.342Z,36.73
2022-07-29T12:37:33.325Z,37.03
2022-07-29T12:43:12.487Z,37.02
2022-07-29T12:48:18.175Z,37.50
2022-07-29T12:53:23.096Z,37.74
2022-07-29T12:58:45.209Z,37.62
2022-07-29T13:03:57.132Z,37.24
2022-07-29T13:09:10.420Z,37.52
2022-07-29T13:14:40.851Z,37.62
2022-07-29T13:19:56.424Z,37.92
2022-07-29T13:25:04.256Z,38.21
2022-07-29T13:30:20.880Z,38.24
2022-07-29T13:35:28.322Z,38.06
2022-07-29T13:40:34.516Z,38.29
2022-07-29T13:45:40.823Z,38.02
2022-07-29T13:50:47.665Z,37.55
2022-07-29T13:55:55.149Z,36.69
2022-07-29T14:00:59.810Z,36.34
2022-07-29T14:06:07.878Z,36.70
2022-07-29T14:11:16.649Z,36.87
2022-07-29T14:16:30.181Z,37.23
2022-07-29T14:21:37.861Z,37.59
2022-07-29T14:26:46.260Z,37.70
2022-07-29T14:31:56.517Z,38.08
2022-07-29T14:37:03.663Z,38.34
2022-07-29T14:42:13.087Z,37.85
2022-07-29T14:47:20.532Z,37.06
2022-07-29T14:52:26.275Z,36.85
2022-07-29T14:57:43.163Z,36.62
2022-07-29T15:03:01.880Z,36.24
2022-07-29T15:08:10.049Z,35.02
2022-07-29T15:13:16.448Z,32.49
2022-07-29T15:18:25.765Z,30.09
2022-07-29T15:23:31.878Z,29.83
2022-07-29T15:28:36.502Z,29.66
2022-07-29T15:33:42.210Z,30.07
2022-07-29T15:38:47.231Z,30.36
2022-07-29T15:43:53.521Z,30.26
2022-07-29T15:48:58.806Z,30.61
2022-07-29T15:54:07.188Z,31.41
2022-07-29T15:59:22.209Z,31.16
2022-07-29T16:04:28.583Z,29.60
2022-07-29T16:09:33.837Z,29.06
2022-07-29T16:14:39.631Z,28.15
2022-07-29T16:19:48.871Z,27.44
2022-07-29T16:24:54.065Z,26.80
2022-07-29T16:30:00.745Z,25.97
2022-07-29T16:35:08.606Z,25.94
2022-07-29T16:40:13.649Z,26.76
2022-07-29T16:45:46.474Z,27.80
2022-07-29T16:50:53.745Z,28.23
2022-07-29T16:55:59.003Z,28.39
2022-07-29T17:01:04.331Z,29.27
2022-07-29T17:06:09.552Z,30.43
2022-07-29T17:11:16.151Z,31.59
2022-07-29T17:16:26.328Z,31.61
2022-07-29T17:21:31.267Z,31.24
2022-07-29T17:26:36.217Z,31.86
2022-07-29T17:31:40.840Z,33.59
2022-07-29T17:36:46.177Z,34.88
2022-07-29T17:41:52.144Z,36.55
2022-07-29T17:46:57.763Z,37.49
2022-07-29T17:52:02.563Z,38.27
2022-07-29T17:57:07.579Z,39.10
2022-07-29T18:02:14.937Z,39.89
2022-07-29T18:07:19.923Z,40.68
2022-07-29T18:12:24.285Z,42.18
2022-07-29T18:17:34.581Z,42.74
2022-07-29T18:22:56.672Z,43.12
2022-07-29T18:28:01.806Z,43.68
2022-07-29T18:33:25.984Z,44.34
2022-07-29T18:38:31.063Z,44.59
2022-07-29T18:43:43.998Z,45.67
2022-07-29T18:48:54.668Z,46.00
2022-07-29T18:54:01.313Z,46.64
2022-07-29T18:59:07.785Z,47.33
2022-07-29T19:04:16.967Z,48.08
2022-07-29T19:09:24.511Z,48.40
2022-07-29T19:14:30.270Z,49.03
2022-07-29T19:19:36.043Z,49.74
2022-07-29T19:24:44.173Z,50.24
2022-07-29T19:29:49.319Z,50.79
2022-07-29T19:35:13.777Z,51.70
2022-07-29T19:40:21.134Z,52.23
2022-07-29T19:45:27.188Z,53.18
2022-07-29T19:50:36.917Z,53.53
2022-07-29T19:55:44.308Z,54.11
2022-07-29T20:00:51.988Z,54.99
2022-07-29T20:05:57.700Z,55.11
2022-07-29T20:11:04.807Z,55.54
2022-07-29T20:16:10.054Z,56.15
2022-07-29T20:21:14.861Z,56.70
2022-07-29T20:26:19.787Z,57.03
2022-07-29T20:31:25.289Z,58.02
2022-07-29T20:36:31.472Z,58.05
2022-07-29T20:41:37.504Z,58.59
2022-07-29T20:46:43.505Z,58.70
2022-07-29T20:51:47.629Z,59.52
2022-07-29T20:56:51.968Z,59.44
2022-07-29T21:01:56.386Z,60.00
2022-07-29T21:07:00.888Z,60.46
2022-07-29T21:12:05.975Z,61.06
2022-07-29T21:17:10.756Z,66.05
2022-07-29T21:22:15.109Z,67.22
2022-07-29T21:27:38.565Z,59.96
2022-07-29T21:32:42.971Z,55.51
2022-07-29T21:37:47.367Z,56.79
2022-07-29T21:42:51.515Z,58.46
2022-07-29T21:47:55.948Z,59.25
2022-07-29T21:53:00.622Z,59.93
2022-07-29T21:58:05.438Z,63.60
2022-07-29T22:03:10.604Z,65.89
2022-07-29T22:08:15.139Z,63.49
2022-07-29T22:13:19.285Z,61.03
2022-07-29T22:18:23.309Z,57.06
2022-07-29T22:23:27.558Z,57.74
2022-07-29T22:28:31.905Z,58.05
2022-07-29T22:33:36.038Z,60.29
2022-07-29T22:38:40.365Z,65.35
2022-07-29T22:43:44.604Z,65.21
2022-07-29T22:48:48.675Z,58.73
2022-07-29T22:53:53.084Z,55.32
2022-07-29T22:58:57.417Z,57.65
2022-07-29T23:04:01.625Z,59.39
2022-07-29T23:09:06.844Z,60.54
2022-07-29T23:14:11.277Z,61.59
2022-07-29T23:19:15.620Z,69.75
2022-07-29T23:24:32.129Z,63.35
2022-07-29T23:29:36.932Z,56.42
2022-07-29T23:34:41.254Z,57.87
2022-07-29T23:39:45.587Z,60.23
2022-07-29T23:44:50.118Z,60.86
2022-07-29T23:49:56.610Z,68.05
2022-07-29T23:55:37.333Z,63.15
